sensor_id;sensor_type;location;lat;lon;timestamp;pressure;altitude;pressure_sealevel;temperature;humidity
30110;BME280;14965;50.660;13.226;2023-04-03T00:00:29;95687.38;;;-0.66;97.35
30110;BME280;14965;50.660;13.226;2023-04-03T00:02:55;95689.88;;;-0.73;96.99
30110;BME280;14965;50.660;13.226;2023-04-03T00:05:21;95675.44;;;-0.78;97.17
30110;BME280;14965;50.660;13.226;2023-04-03T00:07:48;95687.66;;;-0.84;97.20
30110;BME280;14965;50.660;13.226;2023-04-03T00:10:14;95685.97;;;-0.88;96.87
30110;BME280;14965;50.660;13.226;2023-04-03T00:12:40;95681.16;;;-0.95;97.21
30110;BME280;14965;50.660;13.226;2023-04-03T00:15:06;95687.25;;;-0.98;97.60
30110;BME280;14965;50.660;13.226;2023-04-03T00:17:32;95682.16;;;-0.87;97.88
30110;BME280;14965;50.660;13.226;2023-04-03T00:19:58;95677.94;;;-0.85;99.02
30110;BME280;14965;50.660;13.226;2023-04-03T00:22:24;95689.94;;;-0.86;98.12
30110;BME280;14965;50.660;13.226;2023-04-03T00:24:51;95684.88;;;-0.87;97.81
30110;BME280;14965;50.660;13.226;2023-04-03T00:27:17;95682.38;;;-0.92;97.33
30110;BME280;14965;50.660;13.226;2023-04-03T00:29:43;95686.91;;;-0.96;97.44
30110;BME280;14965;50.660;13.226;2023-04-03T00:32:09;95688.03;;;-0.97;97.11
30110;BME280;14965;50.660;13.226;2023-04-03T00:34:35;95691.44;;;-1.01;97.09
30110;BME280;14965;50.660;13.226;2023-04-03T00:37:01;95690.53;;;-1.05;96.76
30110;BME280;14965;50.660;13.226;2023-04-03T00:39:26;95697.78;;;-1.09;97.79
30110;BME280;14965;50.660;13.226;2023-04-03T00:41:54;95696.69;;;-1.08;97.35
30110;BME280;14965;50.660;13.226;2023-04-03T00:44:21;95697.88;;;-1.05;97.74
30110;BME280;14965;50.660;13.226;2023-04-03T00:46:47;95696.84;;;-1.01;97.56
30110;BME280;14965;50.660;13.226;2023-04-03T00:49:13;95696.44;;;-1.03;97.33
30110;BME280;14965;50.660;13.226;2023-04-03T00:51:39;95692.47;;;-1.05;97.35
30110;BME280;14965;50.660;13.226;2023-04-03T00:54:06;95695.97;;;-1.05;97.52
30110;BME280;14965;50.660;13.226;2023-04-03T00:56:33;95694.97;;;-1.00;97.79
30110;BME280;14965;50.660;13.226;2023-04-03T00:59:06;95696.63;;;-0.95;97.84
30110;BME280;14965;50.660;13.226;2023-04-03T01:01:34;95700.28;;;-1.04;97.38
30110;BME280;14965;50.660;13.226;2023-04-03T01:04:00;95699.63;;;-1.13;96.26
30110;BME280;14965;50.660;13.226;2023-04-03T01:06:28;95701.13;;;-1.28;95.68
30110;BME280;14965;50.660;13.226;2023-04-03T01:08:55;95696.84;;;-1.29;96.92
30110;BME280;14965;50.660;13.226;2023-04-03T01:11:21;95699.97;;;-1.27;97.02
30110;BME280;14965;50.660;13.226;2023-04-03T01:13:47;95702.56;;;-1.30;96.92
30110;BME280;14965;50.660;13.226;2023-04-03T01:16:14;95699.31;;;-1.36;96.81
30110;BME280;14965;50.660;13.226;2023-04-03T01:18:41;95703.28;;;-1.33;96.78
30110;BME280;14965;50.660;13.226;2023-04-03T01:21:38;95702.56;;;-1.30;96.67
30110;BME280;14965;50.660;13.226;2023-04-03T01:24:22;95695.59;;;-1.31;96.65
30110;BME280;14965;50.660;13.226;2023-04-03T01:26:49;95707.31;;;-1.27;97.16
30110;BME280;14965;50.660;13.226;2023-04-03T01:29:15;95709.47;;;-1.20;97.18
30110;BME280;14965;50.660;13.226;2023-04-03T01:31:56;95709.00;;;-1.22;96.29
30110;BME280;14965;50.660;13.226;2023-04-03T01:34:23;95710.72;;;-1.30;96.92
30110;BME280;14965;50.660;13.226;2023-04-03T01:36:49;95711.06;;;-1.32;97.02
30110;BME280;14965;50.660;13.226;2023-04-03T01:39:16;95713.13;;;-1.41;96.21
30110;BME280;14965;50.660;13.226;2023-04-03T01:41:42;95713.78;;;-1.44;96.37
30110;BME280;14965;50.660;13.226;2023-04-03T01:44:08;95710.16;;;-1.36;97.18
30110;BME280;14965;50.660;13.226;2023-04-03T01:46:34;95709.50;;;-1.33;96.94
30110;BME280;14965;50.660;13.226;2023-04-03T01:49:01;95718.84;;;-1.30;96.96
30110;BME280;14965;50.660;13.226;2023-04-03T01:51:27;95715.34;;;-1.31;96.35
30110;BME280;14965;50.660;13.226;2023-04-03T01:53:53;95722.56;;;-1.35;96.60
30110;BME280;14965;50.660;13.226;2023-04-03T01:56:19;95717.75;;;-1.41;96.22
30110;BME280;14965;50.660;13.226;2023-04-03T01:58:45;95721.69;;;-1.39;96.31
30110;BME280;14965;50.660;13.226;2023-04-03T02:01:11;95723.47;;;-1.43;96.48
30110;BME280;14965;50.660;13.226;2023-04-03T02:03:36;95720.66;;;-1.46;96.68
30110;BME280;14965;50.660;13.226;2023-04-03T02:06:04;95721.47;;;-1.46;96.65
30110;BME280;14965;50.660;13.226;2023-04-03T02:08:30;95727.22;;;-1.47;96.43
30110;BME280;14965;50.660;13.226;2023-04-03T02:10:56;95719.75;;;-1.51;96.02
30110;BME280;14965;50.660;13.226;2023-04-03T02:13:22;95722.94;;;-1.48;96.14
30110;BME280;14965;50.660;13.226;2023-04-03T02:15:47;95715.28;;;-1.59;95.28
30110;BME280;14965;50.660;13.226;2023-04-03T02:18:14;95720.78;;;-1.67;95.49
30110;BME280;14965;50.660;13.226;2023-04-03T02:20:39;95716.38;;;-1.72;96.10
30110;BME280;14965;50.660;13.226;2023-04-03T02:23:07;95718.00;;;-1.71;96.81
30110;BME280;14965;50.660;13.226;2023-04-03T02:25:32;95719.56;;;-1.70;97.09
30110;BME280;14965;50.660;13.226;2023-04-03T02:27:59;95713.69;;;-1.72;96.70
30110;BME280;14965;50.660;13.226;2023-04-03T02:30:24;95710.66;;;-1.70;96.94
30110;BME280;14965;50.660;13.226;2023-04-03T02:32:50;95720.13;;;-1.64;97.09
30110;BME280;14965;50.660;13.226;2023-04-03T02:35:16;95721.25;;;-1.65;96.97
30110;BME280;14965;50.660;13.226;2023-04-03T02:37:42;95717.41;;;-1.64;97.21
30110;BME280;14965;50.660;13.226;2023-04-03T02:40:10;95725.75;;;-1.69;96.43
30110;BME280;14965;50.660;13.226;2023-04-03T02:42:36;95722.28;;;-1.70;95.97
30110;BME280;14965;50.660;13.226;2023-04-03T02:45:02;95724.19;;;-1.70;96.09
30110;BME280;14965;50.660;13.226;2023-04-03T02:47:28;95731.41;;;-1.74;95.53
30110;BME280;14965;50.660;13.226;2023-04-03T02:49:54;95726.44;;;-1.85;95.37
30110;BME280;14965;50.660;13.226;2023-04-03T02:52:20;95726.09;;;-1.95;96.10
30110;BME280;14965;50.660;13.226;2023-04-03T02:54:46;95723.38;;;-1.95;96.52
30110;BME280;14965;50.660;13.226;2023-04-03T02:57:13;95732.41;;;-1.91;96.66
30110;BME280;14965;50.660;13.226;2023-04-03T02:59:39;95734.53;;;-1.97;96.51
30110;BME280;14965;50.660;13.226;2023-04-03T03:02:05;95732.97;;;-1.98;96.73
30110;BME280;14965;50.660;13.226;2023-04-03T03:04:31;95738.13;;;-2.05;96.51
30110;BME280;14965;50.660;13.226;2023-04-03T03:06:57;95738.94;;;-2.05;96.48
30110;BME280;14965;50.660;13.226;2023-04-03T03:09:23;95738.25;;;-2.02;96.56
30110;BME280;14965;50.660;13.226;2023-04-03T03:11:49;95742.19;;;-2.11;96.36
30110;BME280;14965;50.660;13.226;2023-04-03T03:14:16;95740.16;;;-2.14;96.42
30110;BME280;14965;50.660;13.226;2023-04-03T03:16:42;95746.69;;;-2.15;96.01
30110;BME280;14965;50.660;13.226;2023-04-03T03:19:08;95745.34;;;-2.21;96.25
30110;BME280;14965;50.660;13.226;2023-04-03T03:21:34;95735.88;;;-2.15;96.07
30110;BME280;14965;50.660;13.226;2023-04-03T03:23:59;95745.13;;;-2.16;96.33
30110;BME280;14965;50.660;13.226;2023-04-03T03:26:26;95736.75;;;-2.23;95.46
30110;BME280;14965;50.660;13.226;2023-04-03T03:28:51;95741.00;;;-2.35;95.60
30110;BME280;14965;50.660;13.226;2023-04-03T03:31:19;95739.44;;;-2.36;96.40
30110;BME280;14965;50.660;13.226;2023-04-03T03:33:45;95742.22;;;-2.44;96.20
30110;BME280;14965;50.660;13.226;2023-04-03T03:36:11;95742.88;;;-2.47;96.83
30110;BME280;14965;50.660;13.226;2023-04-03T03:38:36;95750.44;;;-2.53;96.99
30110;BME280;14965;50.660;13.226;2023-04-03T03:41:02;95748.84;;;-2.54;96.57
30110;BME280;14965;50.660;13.226;2023-04-03T03:43:28;95750.88;;;-2.51;96.42
30110;BME280;14965;50.660;13.226;2023-04-03T03:45:54;95762.69;;;-2.56;96.42
30110;BME280;14965;50.660;13.226;2023-04-03T03:48:22;95751.75;;;-2.59;96.71
30110;BME280;14965;50.660;13.226;2023-04-03T03:50:48;95751.28;;;-2.61;96.29
30110;BME280;14965;50.660;13.226;2023-04-03T03:53:15;95757.34;;;-2.64;95.52
30110;BME280;14965;50.660;13.226;2023-04-03T03:55:41;95760.28;;;-2.69;95.49
30110;BME280;14965;50.660;13.226;2023-04-03T03:58:07;95758.56;;;-2.74;95.28
30110;BME280;14965;50.660;13.226;2023-04-03T04:00:33;95762.56;;;-2.80;95.32
30110;BME280;14965;50.660;13.226;2023-04-03T04:02:58;95764.25;;;-2.88;95.24
30110;BME280;14965;50.660;13.226;2023-04-03T04:05:26;95768.06;;;-2.89;96.28
30110;BME280;14965;50.660;13.226;2023-04-03T04:07:52;95772.22;;;-2.91;95.99
30110;BME280;14965;50.660;13.226;2023-04-03T04:10:18;95773.53;;;-2.97;94.80
30110;BME280;14965;50.660;13.226;2023-04-03T04:12:43;95763.56;;;-3.06;94.66
30110;BME280;14965;50.660;13.226;2023-04-03T04:15:10;95766.94;;;-3.09;95.02
30110;BME280;14965;50.660;13.226;2023-04-03T04:17:36;95762.78;;;-3.06;95.29
30110;BME280;14965;50.660;13.226;2023-04-03T04:20:02;95772.66;;;-3.10;95.61
30110;BME280;14965;50.660;13.226;2023-04-03T04:22:29;95773.44;;;-3.10;95.11
30110;BME280;14965;50.660;13.226;2023-04-03T04:24:55;95772.22;;;-3.12;95.39
30110;BME280;14965;50.660;13.226;2023-04-03T04:27:21;95776.84;;;-3.13;95.44
30110;BME280;14965;50.660;13.226;2023-04-03T04:29:47;95774.19;;;-3.21;95.37
30110;BME280;14965;50.660;13.226;2023-04-03T04:32:13;95780.69;;;-3.22;95.21
30110;BME280;14965;50.660;13.226;2023-04-03T04:34:39;95781.47;;;-3.22;94.58
30110;BME280;14965;50.660;13.226;2023-04-03T04:37:04;95787.34;;;-3.20;94.63
30110;BME280;14965;50.660;13.226;2023-04-03T04:39:32;95789.28;;;-3.20;94.41
30110;BME280;14965;50.660;13.226;2023-04-03T04:41:57;95794.94;;;-3.34;94.56
30110;BME280;14965;50.660;13.226;2023-04-03T04:44:23;95791.09;;;-3.33;94.97
30110;BME280;14965;50.660;13.226;2023-04-03T04:46:49;95797.47;;;-3.38;94.30
30110;BME280;14965;50.660;13.226;2023-04-03T04:49:15;95800.03;;;-3.41;94.25
30110;BME280;14965;50.660;13.226;2023-04-03T04:51:40;95794.00;;;-3.47;94.65
30110;BME280;14965;50.660;13.226;2023-04-03T04:54:06;95802.31;;;-3.52;94.84
30110;BME280;14965;50.660;13.226;2023-04-03T04:56:34;95795.31;;;-3.53;95.21
30110;BME280;14965;50.660;13.226;2023-04-03T04:59:00;95796.94;;;-3.61;94.87
30110;BME280;14965;50.660;13.226;2023-04-03T05:01:26;95796.75;;;-3.56;94.95
30110;BME280;14965;50.660;13.226;2023-04-03T05:03:52;95805.03;;;-3.61;94.75
30110;BME280;14965;50.660;13.226;2023-04-03T05:06:18;95803.47;;;-3.62;95.17
30110;BME280;14965;50.660;13.226;2023-04-03T05:08:44;95802.97;;;-3.55;95.79
30110;BME280;14965;50.660;13.226;2023-04-03T05:11:09;95807.41;;;-3.51;96.12
30110;BME280;14965;50.660;13.226;2023-04-03T05:13:37;95805.78;;;-3.52;95.77
30110;BME280;14965;50.660;13.226;2023-04-03T05:16:04;95812.97;;;-3.56;94.56
30110;BME280;14965;50.660;13.226;2023-04-03T05:18:30;95812.97;;;-3.56;94.68
30110;BME280;14965;50.660;13.226;2023-04-03T05:20:56;95810.97;;;-3.67;93.00
30110;BME280;14965;50.660;13.226;2023-04-03T05:23:21;95817.03;;;-3.79;93.72
30110;BME280;14965;50.660;13.226;2023-04-03T05:25:47;95828.63;;;-3.79;93.69
30110;BME280;14965;50.660;13.226;2023-04-03T05:28:13;95815.59;;;-3.77;94.49
30110;BME280;14965;50.660;13.226;2023-04-03T05:30:40;95821.88;;;-3.64;94.81
30110;BME280;14965;50.660;13.226;2023-04-03T05:33:06;95825.03;;;-3.53;94.66
30110;BME280;14965;50.660;13.226;2023-04-03T05:35:32;95827.09;;;-3.50;94.32
30110;BME280;14965;50.660;13.226;2023-04-03T05:37:58;95831.75;;;-3.59;92.66
30110;BME280;14965;50.660;13.226;2023-04-03T05:40:24;95834.75;;;-3.61;92.73
30110;BME280;14965;50.660;13.226;2023-04-03T05:42:50;95828.09;;;-3.63;92.61
30110;BME280;14965;50.660;13.226;2023-04-03T05:45:16;95835.38;;;-3.64;92.61
30110;BME280;14965;50.660;13.226;2023-04-03T05:47:43;95833.31;;;-3.58;92.83
30110;BME280;14965;50.660;13.226;2023-04-03T05:50:09;95832.19;;;-3.57;92.54
30110;BME280;14965;50.660;13.226;2023-04-03T05:52:37;95832.97;;;-3.57;92.83
30110;BME280;14965;50.660;13.226;2023-04-03T05:55:03;95839.63;;;-3.45;92.74
30110;BME280;14965;50.660;13.226;2023-04-03T05:57:30;95834.16;;;-3.37;91.77
30110;BME280;14965;50.660;13.226;2023-04-03T05:59:55;95834.91;;;-3.28;92.28
30110;BME280;14965;50.660;13.226;2023-04-03T06:02:23;95840.75;;;-3.17;91.62
30110;BME280;14965;50.660;13.226;2023-04-03T06:04:50;95837.50;;;-3.10;91.07
30110;BME280;14965;50.660;13.226;2023-04-03T06:07:18;95846.00;;;-3.20;90.32
30110;BME280;14965;50.660;13.226;2023-04-03T06:09:44;95847.28;;;-3.27;91.12
30110;BME280;14965;50.660;13.226;2023-04-03T06:12:10;95847.34;;;-3.35;90.09
30110;BME280;14965;50.660;13.226;2023-04-03T06:14:37;95850.88;;;-3.43;91.19
30110;BME280;14965;50.660;13.226;2023-04-03T06:17:03;95853.78;;;-3.57;90.67
30110;BME280;14965;50.660;13.226;2023-04-03T06:19:28;95859.56;;;-3.67;92.22
30110;BME280;14965;50.660;13.226;2023-04-03T06:21:56;95863.81;;;-3.58;91.72
30110;BME280;14965;50.660;13.226;2023-04-03T06:24:24;95858.84;;;-3.56;91.00
30110;BME280;14965;50.660;13.226;2023-04-03T06:26:51;95862.94;;;-3.41;90.64
30110;BME280;14965;50.660;13.226;2023-04-03T06:29:17;95866.75;;;-3.42;89.39
30110;BME280;14965;50.660;13.226;2023-04-03T06:31:43;95864.16;;;-3.30;89.40
30110;BME280;14965;50.660;13.226;2023-04-03T06:34:09;95870.06;;;-3.36;88.99
30110;BME280;14965;50.660;13.226;2023-04-03T06:36:35;95868.94;;;-3.35;90.07
30110;BME280;14965;50.660;13.226;2023-04-03T06:39:02;95871.66;;;-3.35;89.58
30110;BME280;14965;50.660;13.226;2023-04-03T06:41:28;95867.63;;;-3.20;89.81
30110;BME280;14965;50.660;13.226;2023-04-03T06:43:54;95879.16;;;-3.11;89.44
30110;BME280;14965;50.660;13.226;2023-04-03T06:46:22;95873.38;;;-3.01;88.70
30110;BME280;14965;50.660;13.226;2023-04-03T06:48:48;95877.53;;;-3.04;86.98
30110;BME280;14965;50.660;13.226;2023-04-03T06:51:19;95876.69;;;-2.95;87.16
30110;BME280;14965;50.660;13.226;2023-04-03T06:53:46;95878.31;;;-2.73;87.18
30110;BME280;14965;50.660;13.226;2023-04-03T06:56:13;95883.34;;;-2.63;85.83
30110;BME280;14965;50.660;13.226;2023-04-03T06:58:39;95897.38;;;-2.70;84.33
30110;BME280;14965;50.660;13.226;2023-04-03T07:01:05;95890.22;;;-2.95;83.81
30110;BME280;14965;50.660;13.226;2023-04-03T07:03:31;95893.94;;;-3.09;84.71
30110;BME280;14965;50.660;13.226;2023-04-03T07:05:56;95889.13;;;-3.03;85.02
30110;BME280;14965;50.660;13.226;2023-04-03T07:08:23;95894.41;;;-3.07;84.61
30110;BME280;14965;50.660;13.226;2023-04-03T07:10:48;95900.09;;;-2.99;83.47
30110;BME280;14965;50.660;13.226;2023-04-03T07:13:16;95891.97;;;-2.99;82.69
30110;BME280;14965;50.660;13.226;2023-04-03T07:15:41;95898.28;;;-2.87;82.74
30110;BME280;14965;50.660;13.226;2023-04-03T07:18:07;95898.50;;;-2.71;82.81
30110;BME280;14965;50.660;13.226;2023-04-03T07:20:33;95907.28;;;-2.53;81.79
30110;BME280;14965;50.660;13.226;2023-04-03T07:22:59;95904.66;;;-2.41;79.35
30110;BME280;14965;50.660;13.226;2023-04-03T07:25:25;95902.16;;;-2.46;78.87
30110;BME280;14965;50.660;13.226;2023-04-03T07:27:51;95910.31;;;-2.55;79.46
30110;BME280;14965;50.660;13.226;2023-04-03T07:30:19;95912.31;;;-2.72;80.36
30110;BME280;14965;50.660;13.226;2023-04-03T07:32:44;95923.44;;;-2.95;82.31
30110;BME280;14965;50.660;13.226;2023-04-03T07:35:11;95925.38;;;-3.04;83.38
30110;BME280;14965;50.660;13.226;2023-04-03T07:37:37;95927.31;;;-3.05;85.23
30110;BME280;14965;50.660;13.226;2023-04-03T07:40:06;95922.72;;;-3.13;85.43
30110;BME280;14965;50.660;13.226;2023-04-03T07:42:32;95928.75;;;-3.07;85.14
30110;BME280;14965;50.660;13.226;2023-04-03T07:44:58;95919.47;;;-2.97;85.10
30110;BME280;14965;50.660;13.226;2023-04-03T07:47:26;95925.19;;;-2.99;86.33
30110;BME280;14965;50.660;13.226;2023-04-03T07:49:51;95933.75;;;-2.88;86.73
30110;BME280;14965;50.660;13.226;2023-04-03T07:52:17;95929.63;;;-2.94;84.77
30110;BME280;14965;50.660;13.226;2023-04-03T07:54:44;95932.81;;;-3.01;85.69
30110;BME280;14965;50.660;13.226;2023-04-03T07:57:10;95941.72;;;-2.92;85.69
30110;BME280;14965;50.660;13.226;2023-04-03T07:59:36;95931.78;;;-2.79;85.07
30110;BME280;14965;50.660;13.226;2023-04-03T08:02:02;95926.88;;;-2.86;82.85
30110;BME280;14965;50.660;13.226;2023-04-03T08:04:29;95929.97;;;-2.96;83.14
30110;BME280;14965;50.660;13.226;2023-04-03T08:06:55;95936.44;;;-2.88;84.80
30110;BME280;14965;50.660;13.226;2023-04-03T08:09:21;95938.56;;;-2.73;83.86
30110;BME280;14965;50.660;13.226;2023-04-03T08:11:46;95940.03;;;-2.76;83.38
30110;BME280;14965;50.660;13.226;2023-04-03T08:14:13;95940.78;;;-2.66;83.75
30110;BME280;14965;50.660;13.226;2023-04-03T08:16:38;95944.22;;;-2.57;82.19
30110;BME280;14965;50.660;13.226;2023-04-03T08:19:04;95944.75;;;-2.43;79.28
30110;BME280;14965;50.660;13.226;2023-04-03T08:21:32;95942.72;;;-2.46;79.28
30110;BME280;14965;50.660;13.226;2023-04-03T08:23:57;95944.66;;;-2.55;79.43
30110;BME280;14965;50.660;13.226;2023-04-03T08:26:23;95944.97;;;-2.27;79.30
30110;BME280;14965;50.660;13.226;2023-04-03T08:28:49;95952.50;;;-2.12;77.44
30110;BME280;14965;50.660;13.226;2023-04-03T08:31:17;95945.56;;;-2.01;76.02
30110;BME280;14965;50.660;13.226;2023-04-03T08:33:43;95951.47;;;-1.65;75.00
30110;BME280;14965;50.660;13.226;2023-04-03T08:36:17;95952.75;;;-1.38;74.77
30110;BME280;14965;50.660;13.226;2023-04-03T08:38:44;95947.25;;;-1.30;73.70
30110;BME280;14965;50.660;13.226;2023-04-03T08:41:14;95945.38;;;-0.92;74.14
30110;BME280;14965;50.660;13.226;2023-04-03T08:43:56;95946.53;;;-0.57;72.06
30110;BME280;14965;50.660;13.226;2023-04-03T08:46:38;95951.72;;;-0.64;70.95
30110;BME280;14965;50.660;13.226;2023-04-03T08:49:10;95962.22;;;-0.99;73.35
30110;BME280;14965;50.660;13.226;2023-04-03T08:51:46;95949.53;;;-1.32;73.84
30110;BME280;14965;50.660;13.226;2023-04-03T08:54:23;95942.63;;;-1.41;75.26
30110;BME280;14965;50.660;13.226;2023-04-03T08:56:50;95948.16;;;-1.26;75.14
30110;BME280;14965;50.660;13.226;2023-04-03T08:59:21;95955.59;;;-1.35;74.08
30110;BME280;14965;50.660;13.226;2023-04-03T09:01:49;95958.94;;;-1.62;73.50
30110;BME280;14965;50.660;13.226;2023-04-03T09:04:16;95962.59;;;-1.79;74.72
30110;BME280;14965;50.660;13.226;2023-04-03T09:06:44;95974.78;;;-1.73;73.36
30110;BME280;14965;50.660;13.226;2023-04-03T09:09:13;95961.81;;;-1.67;74.29
30110;BME280;14965;50.660;13.226;2023-04-03T09:11:48;95973.97;;;-1.53;74.62
30110;BME280;14965;50.660;13.226;2023-04-03T09:14:22;95974.69;;;-1.64;74.88
30110;BME280;14965;50.660;13.226;2023-04-03T09:16:54;95975.44;;;-1.43;74.13
30110;BME280;14965;50.660;13.226;2023-04-03T09:19:34;95971.88;;;-1.35;73.42
30110;BME280;14965;50.660;13.226;2023-04-03T09:22:07;95972.69;;;-1.55;72.83
30110;BME280;14965;50.660;13.226;2023-04-03T09:24:37;95978.69;;;-1.62;74.86
30110;BME280;14965;50.660;13.226;2023-04-03T09:27:06;95975.41;;;-1.22;76.49
30110;BME280;14965;50.660;13.226;2023-04-03T09:29:35;95980.63;;;-1.17;73.12
30110;BME280;14965;50.660;13.226;2023-04-03T09:32:18;95969.88;;;-1.13;73.00
30110;BME280;14965;50.660;13.226;2023-04-03T09:34:45;95973.84;;;-1.11;71.96
30110;BME280;14965;50.660;13.226;2023-04-03T09:37:35;95982.88;;;-1.52;69.87
30110;BME280;14965;50.660;13.226;2023-04-03T09:40:02;95975.69;;;-1.36;74.14
30110;BME280;14965;50.660;13.226;2023-04-03T09:42:30;95980.06;;;-1.10;73.53
30110;BME280;14965;50.660;13.226;2023-04-03T09:44:58;95975.00;;;-0.99;68.83
30110;BME280;14965;50.660;13.226;2023-04-03T09:47:26;95978.72;;;-1.04;70.46
30110;BME280;14965;50.660;13.226;2023-04-03T09:50:10;95982.22;;;-1.04;71.19
30110;BME280;14965;50.660;13.226;2023-04-03T09:52:45;95985.72;;;-1.03;70.11
30110;BME280;14965;50.660;13.226;2023-04-03T09:55:14;95985.94;;;-1.08;69.26
30110;BME280;14965;50.660;13.226;2023-04-03T09:57:46;95987.13;;;-1.30;72.27
30110;BME280;14965;50.660;13.226;2023-04-03T10:00:20;95979.94;;;-1.47;72.17
30110;BME280;14965;50.660;13.226;2023-04-03T10:02:50;95984.38;;;-1.42;72.73
30110;BME280;14965;50.660;13.226;2023-04-03T10:05:31;95979.25;;;-1.11;74.21
30110;BME280;14965;50.660;13.226;2023-04-03T10:08:18;95977.16;;;-0.81;71.66
30110;BME280;14965;50.660;13.226;2023-04-03T10:10:47;95981.13;;;-0.78;68.51
30110;BME280;14965;50.660;13.226;2023-04-03T10:13:17;95976.72;;;-0.83;70.84
30110;BME280;14965;50.660;13.226;2023-04-03T10:15:45;95971.97;;;-0.73;71.48
30110;BME280;14965;50.660;13.226;2023-04-03T10:18:32;95970.25;;;-1.03;70.07
30110;BME280;14965;50.660;13.226;2023-04-03T10:21:02;95969.00;;;-0.81;71.71
30110;BME280;14965;50.660;13.226;2023-04-03T10:23:35;95963.59;;;-0.44;68.36
30110;BME280;14965;50.660;13.226;2023-04-03T10:26:11;95967.19;;;-0.15;67.99
30110;BME280;14965;50.660;13.226;2023-04-03T10:28:48;95969.41;;;-0.05;66.41
30110;BME280;14965;50.660;13.226;2023-04-03T10:31:22;95977.72;;;-0.51;68.36
30110;BME280;14965;50.660;13.226;2023-04-03T10:33:59;95977.75;;;-0.75;70.54
30110;BME280;14965;50.660;13.226;2023-04-03T10:36:34;95973.53;;;-0.97;71.93
30110;BME280;14965;50.660;13.226;2023-04-03T10:39:09;95974.69;;;-0.61;72.73
30110;BME280;14965;50.660;13.226;2023-04-03T10:41:48;95968.25;;;-0.57;64.89
30110;BME280;14965;50.660;13.226;2023-04-03T10:44:29;95969.13;;;-0.53;64.65
30110;BME280;14965;50.660;13.226;2023-04-03T10:47:03;95958.72;;;-0.63;65.68
30110;BME280;14965;50.660;13.226;2023-04-03T10:49:40;95955.03;;;-0.70;66.51
30110;BME280;14965;50.660;13.226;2023-04-03T10:52:14;95959.44;;;-0.66;66.31
30110;BME280;14965;50.660;13.226;2023-04-03T10:54:46;95962.69;;;-0.36;67.76
30110;BME280;14965;50.660;13.226;2023-04-03T10:57:15;95952.84;;;-0.28;67.80
30110;BME280;14965;50.660;13.226;2023-04-03T10:59:45;95958.03;;;-0.23;70.57
30110;BME280;14965;50.660;13.226;2023-04-03T11:02:17;95955.56;;;-0.28;69.14
30110;BME280;14965;50.660;13.226;2023-04-03T11:04:47;95953.66;;;-0.52;71.12
30110;BME280;14965;50.660;13.226;2023-04-03T11:07:17;95949.78;;;-0.51;71.12
30110;BME280;14965;50.660;13.226;2023-04-03T11:09:48;95946.13;;;-0.18;73.40
30110;BME280;14965;50.660;13.226;2023-04-03T11:12:18;95946.06;;;0.06;66.95
30110;BME280;14965;50.660;13.226;2023-04-03T11:14:50;95942.06;;;0.16;60.48
30110;BME280;14965;50.660;13.226;2023-04-03T11:17:26;95928.88;;;0.02;61.28
30110;BME280;14965;50.660;13.226;2023-04-03T11:20:00;95929.88;;;0.10;62.16
30110;BME280;14965;50.660;13.226;2023-04-03T11:22:29;95928.06;;;0.14;61.40
30110;BME280;14965;50.660;13.226;2023-04-03T11:25:02;95925.56;;;0.37;63.17
30110;BME280;14965;50.660;13.226;2023-04-03T11:27:35;95926.13;;;0.42;59.81
30110;BME280;14965;50.660;13.226;2023-04-03T11:30:12;95926.19;;;0.30;61.15
30110;BME280;14965;50.660;13.226;2023-04-03T11:32:55;95926.84;;;-0.01;61.65
30110;BME280;14965;50.660;13.226;2023-04-03T11:35:25;95929.72;;;-0.22;63.02
30110;BME280;14965;50.660;13.226;2023-04-03T11:37:52;95935.28;;;-0.31;64.94
30110;BME280;14965;50.660;13.226;2023-04-03T11:40:22;95920.03;;;-0.35;65.57
30110;BME280;14965;50.660;13.226;2023-04-03T11:42:52;95927.84;;;-0.34;65.84
30110;BME280;14965;50.660;13.226;2023-04-03T11:45:40;95918.56;;;-0.33;66.90
30110;BME280;14965;50.660;13.226;2023-04-03T11:51:38;95919.03;;;-0.55;68.64
30110;BME280;14965;50.660;13.226;2023-04-03T12:12:38;95903.38;;;-0.21;66.54
30110;BME280;14965;50.660;13.226;2023-04-03T12:15:21;95904.53;;;-0.35;68.56
30110;BME280;14965;50.660;13.226;2023-04-03T12:17:48;95910.09;;;-0.31;69.24
30110;BME280;14965;50.660;13.226;2023-04-03T12:23:24;95897.25;;;-0.18;66.86
30110;BME280;14965;50.660;13.226;2023-04-03T12:25:51;95899.41;;;-0.12;66.59
30110;BME280;14965;50.660;13.226;2023-04-03T12:28:18;95898.16;;;-0.14;64.40
30110;BME280;14965;50.660;13.226;2023-04-03T12:30:45;95892.16;;;-0.08;65.03
30110;BME280;14965;50.660;13.226;2023-04-03T12:33:20;95894.00;;;0.04;64.08
30110;BME280;14965;50.660;13.226;2023-04-03T12:35:57;95891.75;;;0.34;64.19
30110;BME280;14965;50.660;13.226;2023-04-03T12:38:41;95872.44;;;0.67;62.09
30110;BME280;14965;50.660;13.226;2023-04-03T12:41:18;95877.59;;;0.88;62.00
30110;BME280;14965;50.660;13.226;2023-04-03T12:44:01;95873.38;;;0.75;60.69
30110;BME280;14965;50.660;13.226;2023-04-03T12:46:36;95876.34;;;0.38;60.96
30110;BME280;14965;50.660;13.226;2023-04-03T12:49:02;95882.94;;;0.09;62.21
30110;BME280;14965;50.660;13.226;2023-04-03T12:51:40;95873.00;;;0.01;63.43
30110;BME280;14965;50.660;13.226;2023-04-03T12:54:13;95879.13;;;0.26;64.12
30110;BME280;14965;50.660;13.226;2023-04-03T12:56:40;95887.38;;;0.45;62.85
30110;BME280;14965;50.660;13.226;2023-04-03T12:59:23;95881.88;;;0.42;64.58
30110;BME280;14965;50.660;13.226;2023-04-03T13:01:53;95877.75;;;0.48;63.04
30110;BME280;14965;50.660;13.226;2023-04-03T13:04:20;95879.66;;;0.47;63.99
30110;BME280;14965;50.660;13.226;2023-04-03T13:06:45;95879.22;;;0.30;62.32
30110;BME280;14965;50.660;13.226;2023-04-03T13:09:21;95886.06;;;0.11;63.02
30110;BME280;14965;50.660;13.226;2023-04-03T13:11:48;95874.94;;;0.01;63.80
30110;BME280;14965;50.660;13.226;2023-04-03T13:14:17;95875.97;;;-0.04;63.53
30110;BME280;14965;50.660;13.226;2023-04-03T13:16:54;95879.59;;;0.16;64.75
30110;BME280;14965;50.660;13.226;2023-04-03T13:19:22;95877.81;;;0.36;63.88
30110;BME280;14965;50.660;13.226;2023-04-03T13:21:49;95880.00;;;0.46;62.99